Aérodrome :
LOGIN :

S'inscrire | Disclaimer

   EN    FR    IT 

 










Légende :    VFR   VFR Marginal   IFR   IFR Intensif   IFR Très Intensif
Visi : 
Plafond : 
>= 8 km
>= 3000ft
5 à 8 km
1000 à 3000 ft
1500m à 5 km
500 à 1000 ft
800 à 1500m
200 à 500 ft
< 800m
< 200 ft
Symboles :   Orages  Brouillard  Fortes neiges  Fortes précipitations  Vent > 20 kt
SIGMETs :   Divers  Orages  Givrage  Turbulence  Onde Orograph.  Cendres Volcan.







- Altitude de l'aérodrome : 158 ft
- Code IATA : QAR


EHDL - Deelen Airbase

DERNIER METAR :
  • 161525Z AUTO 25010KT 200V310 9999 FEW031 SCT120 04/01 Q0992 BLU

METARs EXPIRÉS :
  • 161455Z AUTO 25009KT 220V310 9999 FEW015CB BKN030 BKN035 BKN045 05/02 Q0992 REDZ BLU
  • 161425Z AUTO 26008KT 200V010 9999 -RA FEW015CB SCT039 BKN055 04/01 Q0992 RERA BLU
  • 161355Z AUTO 26009KT 220V330 9999 FEW027 SCT036 BKN053 06/02 Q0992 BLU
  • 161325Z AUTO 26018G31KT 210V010 9999 FEW024 SCT053 05/00 Q0992 BLU
  • 161255Z AUTO 27009KT 210V340 9999 FEW015CB SCT055 BKN062 05/01 Q0992 RERA REDZ BLU

TAF TAF EHDL
Valide du 16 à 14h jusqu'au 17 à 02h UTC


161321Z 1614/1702 26010KT 9999 SCT020 BKN030
TEMPO 1612/1616 27018G30KT 4000 SHRA SCT010 SCT018CB BKN022
TEMPO 1615/1702 27015G27KT 3000 SHRASN SCT008 SCT015CB BKN020
TEMPO 1700/1702 1000 -SNSH SCT003 SCT012CB BKN020
Pas de NOTAMs connus pour ce terrain.



MET'MAP, la Météo Aéronautique d'un coup d'oeil ! - Copyright ORBIFLY Décembre 2007 - Disclaimer

ORBIFLY MET'MAP TEAM :

Programmation & Développement : Alexandra Zaïnal
Conception & Développement : Baudouin d'Aumeries
Co-Programmation & Développement : Marc-Olivier Méhu
Soutien technique & logistique : Manuel Goepfert

Contact : metmap@orbifly.com




SOURCES & CREDITS :

   NOAA